ADDS METAR Data INFO
IDs: Format: Raw Decoded Include TAF

Data at: 0858 UTC 19 Jun 2018

KRZT 190856Z AUTO 28008KT 10SM SCT048 SCT055 25/22 A2997 RMK AO2 LTG DSNT NW
KRZT 190837Z AUTO 27004KT 10SM SCT048 SCT055 25/22 A2996 RMK AO2
KRZT 190816Z AUTO 27004KT 10SM CLR 25/21 A2997 RMK AO2 LTG DSNT NW
KRZT 190815Z AUTO 28004KT 10SM CLR 25/21 A2997 RMK AO2 LTG DSNT NW
KRZT 190756Z AUTO 26004KT 10SM CLR 25/21 A2997 RMK AO2 LTG DSNT NW
KRZT 190737Z AUTO 28003KT 10SM CLR 25/21 A2997 RMK AO2
KRZT 190716Z AUTO 30003KT 10SM CLR 25/21 A2998 RMK AO2
KRZT 190656Z AUTO 28008KT 10SM CLR 25/21 A2998 RMK AO2
KRZT 190637Z AUTO 27007KT 10SM CLR 25/21 A2998 RMK AO2
KRZT 190616Z AUTO 27008KT 10SM CLR 26/21 A2998 RMK AO2
KRZT 190557Z AUTO 27008KT 10SM CLR 26/20 A2998 RMK AO2
KRZT 190536Z AUTO 27007KT 10SM CLR 26/20 A2998 RMK AO2
KRZT 190535Z AUTO 27008KT 10SM CLR 26/20 A2998 RMK AO2
KRZT 190516Z AUTO 28007KT 10SM CLR 26/20 A2999 RMK AO2
KRZT 190457Z AUTO 28007KT 10SM CLR 26/20 A2999 RMK AO2
KRZT 190436Z AUTO 28008KT 10SM CLR 26/20 A2999 RMK AO2
KRZT 190416Z AUTO 27006KT 10SM CLR 26/19 A2998 RMK AO2
KRZT 190357Z AUTO 26005KT 10SM CLR 25/20 A2999 RMK AO2
KRZT 190336Z AUTO 00000KT 10SM CLR 26/20 A2998 RMK AO2
KRZT 190317Z AUTO 25003KT 10SM CLR 26/19 A2998 RMK AO2 LTG DSNT NW
KRZT 190256Z AUTO 25005KT 10SM CLR 26/19 A2999 RMK AO2
KRZT 190255Z AUTO 25005KT 10SM CLR 26/19 A2999 RMK AO2
KRZT 190236Z AUTO 24003KT 10SM CLR 26/20 A2998 RMK AO2
KRZT 190217Z AUTO 25003KT 10SM CLR 26/20 A2998 RMK AO2
KRZT 190156Z AUTO 24003KT 10SM CLR 27/19 A2998 RMK AO2
KRZT 190155Z AUTO 24003KT 10SM CLR 27/19 A2998 RMK AO2
KRZT 190137Z AUTO 25003KT 10SM CLR 27/20 A2998 RMK AO2
KRZT 190117Z AUTO 24003KT 10SM CLR 27/20 A2997 RMK AO2
KRZT 190056Z AUTO 24004KT 10SM CLR 28/19 A2997 RMK AO2
KRZT 190037Z AUTO 24004KT 10SM CLR 29/20 A2997 RMK AO2 LTG DSNT NW
KRZT 190016Z AUTO 24003KT 10SM CLR 30/20 A2996 RMK AO2
KRZT 190015Z AUTO 24003KT 10SM CLR 30/19 A2996 RMK AO2
KRZT 182356Z AUTO 25005KT 10SM CLR 31/19 A2996 RMK AO2
KRZT 182337Z AUTO 25005KT 10SM CLR 31/19 A2996 RMK AO2
KRZT 182316Z AUTO 25007KT 10SM CLR 32/18 A2996 RMK AO2
KRZT 182315Z AUTO 25007KT 10SM CLR 32/18 A2996 RMK AO2
KRZT 182257Z AUTO 26009KT 10SM CLR 32/18 A2996 RMK AO2
KRZT 182237Z AUTO 25007KT 10SM CLR 32/19 A2996 RMK AO2
KRZT 182216Z AUTO 26009KT 10SM CLR 32/17 A2996 RMK AO2
KRZT 182157Z AUTO 27010KT 10SM CLR 32/17 A2997 RMK AO2
KRZT 182136Z AUTO 27008KT 10SM CLR 33/17 A2999 RMK AO2
KRZT 182117Z AUTO 26009G16KT 10SM CLR 33/16 A2999 RMK AO2
KRZT 182056Z AUTO 26011KT 10SM CLR 33/16 A3000 RMK AO2
KRZT 182055Z AUTO 26010KT 10SM CLR 33/16 A3000 RMK AO2
KRZT 182036Z AUTO 27010G14KT 10SM CLR 33/17 A3001 RMK AO2
KRZT 182017Z AUTO 26007KT 10SM CLR 33/18 A3001 RMK AO2
KRZT 181956Z AUTO 26010KT 10SM CLR 33/18 A3002 RMK AO2
KRZT 181955Z AUTO 26010KT 10SM CLR 33/18 A3002 RMK AO2
KRZT 181936Z AUTO 26010KT 10SM SCT050 SCT070 33/18 A3003 RMK AO2
KRZT 181917Z AUTO 29009G14KT 10SM SCT050 33/18 A3004 RMK AO2
KRZT 181856Z AUTO 29012KT 10SM SCT050 33/17 A3005 RMK AO2 LTG DSNT NE
KRZT 181855Z AUTO 28010KT 10SM SCT050 33/17 A3005 RMK AO2 LTG DSNT NE
KRZT 181837Z AUTO 28007KT 10SM CLR 32/18 A3005 RMK AO2
KRZT 181817Z AUTO 28009G14KT 10SM SCT050 32/18 A3006 RMK AO2
KRZT 181756Z AUTO 30009G14KT 10SM SCT055 32/18 A3007 RMK AO2
KRZT 181737Z AUTO 31010KT 10SM CLR 32/18 A3007 RMK AO2
KRZT 181716Z AUTO 27010KT 10SM SCT050 32/18 A3008 RMK AO2
KRZT 181715Z AUTO 28009KT 10SM SCT050 32/18 A3008 RMK AO2
KRZT 181656Z AUTO 30010KT 10SM SCT046 SCT050 32/19 A3009 RMK AO2
KRZT 181637Z AUTO 28011G15KT 10SM SCT046 SCT070 32/20 A3009 RMK AO2
KRZT 181616Z AUTO 28010G15KT 10SM SCT043 31/20 A3009 RMK AO2
KRZT 181615Z AUTO 29011G15KT 10SM SCT043 31/20 A3009 RMK AO2
KRZT 181556Z AUTO 30008KT 10SM SCT043 31/21 A3009 RMK AO2
KRZT 181537Z AUTO 28009KT 10SM SCT035 30/21 A3009 RMK AO2
KRZT 181516Z AUTO 28005KT 10SM CLR 30/22 A3009 RMK AO2
KRZT 181457Z AUTO 30007KT 10SM CLR 30/21 A3010 RMK AO2
KRZT 181436Z AUTO 27008KT 10SM CLR 30/21 A3010 RMK AO2
KRZT 181435Z AUTO 27009KT 10SM CLR 30/21 A3010 RMK AO2
KRZT 181416Z AUTO 28006KT 10SM CLR 29/22 A3010 RMK AO2
KRZT 181357Z AUTO 27007KT 10SM CLR 28/22 A3010 RMK AO2
KRZT 181336Z AUTO 00000KT 10SM CLR 27/23 A3010 RMK AO2
KRZT 181317Z AUTO 00000KT 10SM CLR 27/23 A3010 RMK AO2
KRZT 181257Z AUTO 00000KT 10SM CLR 26/23 A3010 RMK AO2
KRZT 181236Z AUTO 00000KT 10SM CLR 25/22 A3010 RMK AO2
KRZT 181217Z AUTO 00000KT 10SM CLR 23/22 A3009 RMK AO2
KRZT 181156Z AUTO 00000KT 10SM CLR 23/22 A3009 RMK AO2
KRZT 181155Z AUTO 00000KT 10SM CLR 23/22 A3009 RMK AO2
KRZT 181136Z AUTO 00000KT 7SM CLR 22/22 A3009 RMK AO2
KRZT 181117Z AUTO 00000KT 7SM CLR 22/21 A3008 RMK AO2
KRZT 181056Z AUTO 00000KT 5SM BR CLR 21/21 A3009 RMK AO2
KRZT 181037Z AUTO 00000KT 5SM BR CLR 21/21 A3009 RMK AO2
KRZT 181017Z AUTO 00000KT 5SM BR CLR 21/21 A3008 RMK AO2
KRZT 180956Z AUTO 00000KT 5SM BR CLR 21/21 A3008 RMK AO2
KRZT 180937Z AUTO 00000KT 5SM BR CLR 21/21 A3008 RMK AO2
KRZT 180916Z AUTO 00000KT 5SM BR CLR 21/21 A3008 RMK AO2 LTG DSNT NW
KRZT 180915Z AUTO 00000KT 5SM BR CLR 21/21 A3008 RMK AO2 LTG DSNT NW
KRZT 180856Z AUTO 00000KT 7SM CLR 21/21 A3008 RMK AO2
KRZT 180837Z AUTO 00000KT 7SM CLR 21/21 A3008 RMK AO2
KRZT 180816Z AUTO 21003KT 7SM CLR 22/21 A3007 RMK AO2
KRZT 180757Z AUTO 00000KT 7SM CLR 22/22 A3007 RMK AO2
KRZT 180736Z AUTO 00000KT 7SM CLR 22/22 A3007 RMK AO2
KRZT 180735Z AUTO 20003KT 7SM CLR 22/22 A3007 RMK AO2
KRZT 180716Z AUTO 00000KT 7SM CLR 22/22 A3008 RMK AO2
KRZT 180657Z AUTO 00000KT 7SM CLR 22/22 A3008 RMK AO2
KRZT 180636Z AUTO 00000KT 7SM CLR 22/21 A3009 RMK AO2
KRZT 180635Z AUTO 00000KT 7SM CLR 22/21 A3009 RMK AO2
KRZT 180616Z AUTO 20003KT 7SM CLR 22/21 A3009 RMK AO2
KRZT 180557Z AUTO 00000KT 7SM CLR 22/21 A3009 RMK AO2
KRZT 180536Z AUTO 00000KT 10SM CLR 22/21 A3009 RMK AO2
KRZT 180517Z AUTO 22003KT 10SM CLR 23/21 A3010 RMK AO2
KRZT 180456Z AUTO 00000KT 10SM CLR 23/21 A3010 RMK AO2
KRZT 180455Z AUTO 00000KT 10SM CLR 23/21 A3010 RMK AO2
KRZT 180436Z AUTO 20004KT 10SM CLR 23/21 A3009 RMK AO2
KRZT 180417Z AUTO 21004KT 10SM CLR 23/21 A3009 RMK AO2
KRZT 180356Z AUTO 22004KT 10SM CLR 23/21 A3008 RMK AO2
KRZT 180355Z AUTO 22004KT 10SM CLR 23/21 A3008 RMK AO2
KRZT 180336Z AUTO 21005KT 10SM CLR 24/21 A3008 RMK AO2
KRZT 180317Z AUTO 21005KT 10SM CLR 24/21 A3008 RMK AO2
KRZT 180256Z AUTO 21004KT 10SM CLR 24/21 A3007 RMK AO2
KRZT 180237Z AUTO 21003KT 10SM CLR 25/21 A3007 RMK AO2
KRZT 180216Z AUTO 00000KT 10SM CLR 25/22 A3007 RMK AO2
KRZT 180215Z AUTO 00000KT 10SM CLR 25/22 A3007 RMK AO2
KRZT 180156Z AUTO 22003KT 10SM CLR 25/21 A3007 RMK AO2
KRZT 180137Z AUTO 21003KT 10SM CLR 25/21 A3006 RMK AO2
KRZT 180116Z AUTO 19004KT 10SM CLR 26/21 A3006 RMK AO2
KRZT 180057Z AUTO 18003KT 10SM CLR 26/21 A3005 RMK AO2
KRZT 180036Z AUTO 19005KT 10SM CLR 26/21 A3005 RMK AO2
KRZT 180035Z AUTO 19005KT 10SM CLR 26/22 A3005 RMK AO2
KRZT 180016Z AUTO 19004KT 10SM CLR 27/21 A3006 RMK AO2
KRZT 172357Z AUTO 21004KT 10SM CLR 27/22 A3005 RMK AO2
KRZT 172336Z AUTO 19004KT 10SM CLR 28/22 A3006 RMK AO2 LTG DSNT SE
KRZT 172335Z AUTO 19004KT 10SM CLR 28/22 A3006 RMK AO2 LTG DSNT SE
KRZT 172316Z AUTO 19005KT 10SM CLR 28/22 A3006 RMK AO2
KRZT 172257Z AUTO 20004KT 10SM CLR 29/22 A3007 RMK AO2 LTG DSNT SE
KRZT 172236Z AUTO 17004KT 10SM CLR 29/23 A3007 RMK AO2
KRZT 172217Z AUTO 00000KT 10SM VCTS CLR 30/24 A3007 RMK AO2 LTG DSNT SE
KRZT 172156Z AUTO 00000KT 10SM CLR 29/24 A3007 RMK AO2 LTG DSNT SE
KRZT 172155Z AUTO 00000KT 10SM CLR 29/23 A3007 RMK AO2
KRZT 172136Z AUTO 00000KT 10SM CLR 29/23 A3008 RMK AO2 LTG DSNT E AND SE
KRZT 172117Z AUTO 13003KT 10SM CLR 29/22 A3007 RMK AO2 LTG DSNT E